Time;durP1;ratioP1;P1;durP2;ratioP2;P2;SDS_P1;SDS_P2;PMS_P1;PMS_P2;Temp;Humidity;BMP_temperature;BMP_pressure;BME280_temperature;BME280_humidity;BME280_pressure;Samples;Min_cycle;Max_cycle;Signal;HPM_P1;HPM_P2
2023/03/16 00:01:26;;;;;;;4.13;2.40;;;;;;;;;;5047318;28;20179;-76
2023/03/16 00:03:52;;;;;;;5.07;2.10;;;;;;;;;;5043851;28;20242;-76
2023/03/16 00:06:17;;;;;;;5.77;2.33;;;;;;;;;;5044935;28;20208;-75
2023/03/16 00:08:42;;;;;;;5.03;2.50;;;;;;;;;;5051462;28;20183;-75
2023/03/16 00:11:08;;;;;;;4.50;2.03;;;;;;;;;;5052975;28;20178;-76
2023/03/16 00:13:33;;;;;;;5.10;2.10;;;;;;;;;;5050515;28;20219;-76
2023/03/16 00:15:59;;;;;;;5.97;2.80;;;;;;;;;;5057550;28;20205;-76
2023/03/16 00:18:26;;;;;;;5.97;2.43;;;;;;;;;;5058272;28;20180;-76
2023/03/16 00:20:54;;;;;;;5.00;2.03;;;;;;;;;;5058043;28;20838;-76
2023/03/16 00:23:26;;;;;;;4.30;2.27;;;;;;;;;;5051486;28;20425;-76
2023/03/16 00:26:02;;;;;;;5.53;2.40;;;;;;;;;;5056663;28;20494;-76
2023/03/16 00:28:33;;;;;;;4.60;1.70;;;;;;;;;;5052936;28;20418;-76
2023/03/16 00:31:06;;;;;;;5.00;1.90;;;;;;;;;;5054989;28;20421;-76
2023/03/16 00:33:34;;;;;;;4.90;2.57;;;;;;;;;;5057890;28;20438;-76
2023/03/16 00:36:03;;;;;;;4.80;2.23;;;;;;;;;;5055148;28;20417;-76
2023/03/16 00:38:31;;;;;;;4.50;2.63;;;;;;;;;;5057507;28;20421;-76
2023/03/16 00:40:57;;;;;;;7.43;2.53;;;;;;;;;;5056606;28;20531;-75
2023/03/16 00:43:22;;;;;;;3.67;1.70;;;;;;;;;;5059372;28;21070;-76
2023/03/16 00:45:48;;;;;;;5.10;2.50;;;;;;;;;;5055923;28;20207;-76
2023/03/16 00:48:17;;;;;;;3.63;2.10;;;;;;;;;;5046777;28;20172;-76
2023/03/16 00:50:42;;;;;;;4.30;1.80;;;;;;;;;;5052026;28;20186;-76
2023/03/16 00:53:10;;;;;;;4.20;2.20;;;;;;;;;;5055238;28;20425;-77
2023/03/16 00:55:35;;;;;;;3.70;2.40;;;;;;;;;;5047817;28;20203;-76
2023/03/16 00:58:03;;;;;;;5.20;2.00;;;;;;;;;;5044919;28;20433;-76
2023/03/16 01:00:29;;;;;;;5.03;1.80;;;;;;;;;;5054131;28;20286;-76
2023/03/16 01:02:54;;;;;;;2.90;1.80;;;;;;;;;;5053373;28;20447;-76
2023/03/16 01:05:19;;;;;;;4.10;2.30;;;;;;;;;;5041139;28;20212;-77
2023/03/16 01:07:45;;;;;;;2.73;1.60;;;;;;;;;;5049073;28;20187;-76
2023/03/16 01:10:10;;;;;;;3.87;2.20;;;;;;;;;;5049288;28;20184;-76
2023/03/16 01:12:36;;;;;;;3.43;2.13;;;;;;;;;;5051196;28;20186;-76
2023/03/16 01:15:01;;;;;;;4.33;2.27;;;;;;;;;;5054581;28;20579;-76
2023/03/16 01:17:26;;;;;;;3.83;2.10;;;;;;;;;;5050900;28;20606;-76
2023/03/16 01:19:52;;;;;;;4.00;1.80;;;;;;;;;;5053623;28;20717;-76
2023/03/16 01:22:17;;;;;;;3.20;2.13;;;;;;;;;;5054543;28;20187;-76
2023/03/16 01:24:46;;;;;;;3.83;1.80;;;;;;;;;;5048388;28;20293;-76
2023/03/16 01:27:12;;;;;;;4.33;2.00;;;;;;;;;;5050555;28;20600;-76
2023/03/16 01:29:37;;;;;;;3.90;1.80;;;;;;;;;;5045189;28;20434;-76
2023/03/16 01:32:03;;;;;;;5.40;2.00;;;;;;;;;;5044545;28;20943;-76
2023/03/16 01:34:29;;;;;;;9.70;2.60;;;;;;;;;;5051941;28;20299;-76
2023/03/16 01:36:54;;;;;;;7.17;2.13;;;;;;;;;;5051915;28;20183;-76
2023/03/16 01:39:22;;;;;;;2.93;1.70;;;;;;;;;;5047811;28;20172;-76
2023/03/16 01:41:48;;;;;;;4.93;2.20;;;;;;;;;;5049401;28;20429;-76
2023/03/16 01:44:16;;;;;;;5.60;2.20;;;;;;;;;;5044866;28;20523;-76
2023/03/16 01:46:43;;;;;;;2.87;1.73;;;;;;;;;;5045731;28;20194;-76
2023/03/16 01:49:13;;;;;;;3.53;2.13;;;;;;;;;;5048161;28;20433;-76
2023/03/16 01:52:01;;;;;;;4.57;2.07;;;;;;;;;;5045954;28;20874;-76
2023/03/16 01:54:39;;;;;;;8.83;2.30;;;;;;;;;;5042881;28;20449;-77
2023/03/16 01:57:09;;;;;;;3.70;1.83;;;;;;;;;;5050469;28;20500;-76
2023/03/16 01:59:37;;;;;;;3.33;2.47;;;;;;;;;;5053575;28;20421;-77
2023/03/16 02:02:02;;;;;;;5.53;1.80;;;;;;;;;;5048436;28;20434;-77
2023/03/16 02:04:38;;;;;;;4.53;2.03;;;;;;;;;;5047141;28;20835;-77
2023/03/16 02:07:05;;;;;;;7.33;2.20;;;;;;;;;;5044847;28;20187;-76
2023/03/16 02:09:31;;;;;;;4.20;1.90;;;;;;;;;;5046018;28;20965;-76
2023/03/16 02:11:57;;;;;;;5.20;2.03;;;;;;;;;;5044789;28;20430;-75
2023/03/16 02:14:23;;;;;;;6.10;1.83;;;;;;;;;;5042170;28;20484;-76
2023/03/16 02:16:49;;;;;;;2.60;1.60;;;;;;;;;;5042098;28;20603;-76
2023/03/16 02:19:17;;;;;;;3.70;1.50;;;;;;;;;;5045869;28;20434;-76
2023/03/16 02:21:45;;;;;;;5.20;2.40;;;;;;;;;;5047189;28;20196;-76
2023/03/16 02:24:11;;;;;;;3.20;1.60;;;;;;;;;;5045980;28;20452;-76
2023/03/16 02:26:44;;;;;;;5.70;1.70;;;;;;;;;;5044053;28;20504;-77
2023/03/16 02:29:28;;;;;;;3.90;1.80;;;;;;;;;;5040330;28;20201;-76
2023/03/16 02:31:55;;;;;;;2.97;1.90;;;;;;;;;;5046788;28;20426;-76
2023/03/16 02:34:20;;;;;;;4.20;1.67;;;;;;;;;;5046410;28;20472;-76
2023/03/16 02:36:47;;;;;;;4.50;1.70;;;;;;;;;;5046343;28;20898;-76
2023/03/16 02:39:12;;;;;;;6.57;1.97;;;;;;;;;;5043538;28;20202;-76
2023/03/16 02:41:38;;;;;;;4.03;1.63;;;;;;;;;;5041363;28;20453;-77
2023/03/16 02:44:09;;;;;;;4.50;1.90;;;;;;;;;;5043242;28;20204;-78
2023/03/16 02:46:35;;;;;;;2.50;1.37;;;;;;;;;;5045709;28;20421;-78
2023/03/16 02:49:04;;;;;;;5.37;1.80;;;;;;;;;;5038729;28;20484;-76
2023/03/16 02:51:31;;;;;;;5.90;2.13;;;;;;;;;;5051182;28;20220;-76
2023/03/16 02:53:56;;;;;;;5.03;1.70;;;;;;;;;;5049856;28;20449;-77
2023/03/16 02:56:22;;;;;;;5.97;3.37;;;;;;;;;;5051898;28;20817;-76
2023/03/16 02:58:47;;;;;;;7.93;2.37;;;;;;;;;;5046790;28;20238;-76
2023/03/16 03:01:12;;;;;;;3.80;1.80;;;;;;;;;;5048808;28;20191;-76
2023/03/16 03:03:37;;;;;;;5.43;2.13;;;;;;;;;;5045876;28;20206;-76
2023/03/16 03:06:03;;;;;;;2.90;1.90;;;;;;;;;;5050111;28;20240;-76
2023/03/16 03:08:28;;;;;;;4.20;1.87;;;;;;;;;;5049611;28;20495;-76
2023/03/16 03:10:53;;;;;;;4.00;2.47;;;;;;;;;;5047209;28;20631;-76
2023/03/16 03:13:19;;;;;;;9.03;2.03;;;;;;;;;;5043613;28;20260;-76
2023/03/16 03:15:44;;;;;;;5.87;2.23;;;;;;;;;;5051177;28;20741;-76
2023/03/16 03:18:09;;;;;;;4.80;1.90;;;;;;;;;;5037987;28;20180;-76
2023/03/16 03:20:35;;;;;;;4.40;2.10;;;;;;;;;;5051802;28;20191;-76
2023/03/16 03:23:01;;;;;;;5.40;1.93;;;;;;;;;;5047225;28;20269;-75
2023/03/16 03:25:27;;;;;;;4.43;2.03;;;;;;;;;;5049379;28;20195;-76
2023/03/16 03:27:53;;;;;;;6.83;2.00;;;;;;;;;;5041507;28;20431;-76
2023/03/16 03:30:19;;;;;;;6.13;2.70;;;;;;;;;;5039815;28;20174;-76
2023/03/16 03:32:45;;;;;;;5.27;2.13;;;;;;;;;;5043070;28;20511;-76
2023/03/16 03:35:11;;;;;;;4.10;2.07;;;;;;;;;;5039167;28;20457;-76
2023/03/16 03:37:37;;;;;;;3.83;2.00;;;;;;;;;;5028560;28;20207;-76
2023/03/16 03:40:10;;;;;;;3.83;1.90;;;;;;;;;;5050800;28;20519;-76
2023/03/16 03:42:38;;;;;;;3.37;1.93;;;;;;;;;;5039293;28;20875;-76
2023/03/16 03:45:04;;;;;;;2.57;1.87;;;;;;;;;;5052025;28;20473;-76
2023/03/16 03:47:29;;;;;;;4.80;2.07;;;;;;;;;;5050773;28;20814;-76
2023/03/16 03:49:54;;;;;;;7.80;2.10;;;;;;;;;;5052693;28;20433;-77
2023/03/16 03:52:20;;;;;;;5.93;2.30;;;;;;;;;;5051454;28;20267;-76
2023/03/16 03:54:45;;;;;;;4.67;2.43;;;;;;;;;;5049784;28;20208;-77
2023/03/16 03:57:10;;;;;;;3.33;1.93;;;;;;;;;;5054778;28;20179;-76
2023/03/16 03:59:41;;;;;;;3.97;1.73;;;;;;;;;;5053287;28;20191;-76
2023/03/16 04:02:07;;;;;;;4.40;2.20;;;;;;;;;;5051895;28;20206;-76
2023/03/16 04:04:32;;;;;;;6.37;2.00;;;;;;;;;;5057266;28;20522;-77
2023/03/16 04:06:57;;;;;;;5.23;2.00;;;;;;;;;;5053134;28;20205;-77
2023/03/16 04:09:22;;;;;;;7.03;3.00;;;;;;;;;;5049925;28;20187;-77
2023/03/16 04:11:48;;;;;;;5.10;2.57;;;;;;;;;;5054226;28;20175;-77
2023/03/16 04:14:13;;;;;;;3.87;2.30;;;;;;;;;;5048745;28;20237;-77
2023/03/16 04:16:38;;;;;;;6.40;2.70;;;;;;;;;;5048634;28;20221;-77
2023/03/16 04:19:04;;;;;;;6.60;2.70;;;;;;;;;;5048500;28;20548;-77
2023/03/16 04:21:30;;;;;;;6.30;2.70;;;;;;;;;;5048063;28;20270;-77
2023/03/16 04:23:55;;;;;;;4.20;2.37;;;;;;;;;;5047306;28;20198;-77
2023/03/16 04:26:20;;;;;;;4.23;2.30;;;;;;;;;;5050964;28;20553;-77
2023/03/16 04:28:46;;;;;;;5.53;2.73;;;;;;;;;;5051572;28;20210;-77
2023/03/16 04:31:12;;;;;;;4.43;2.20;;;;;;;;;;5050003;28;20267;-76
2023/03/16 04:33:38;;;;;;;6.60;2.63;;;;;;;;;;5053851;28;20199;-77
2023/03/16 04:36:04;;;;;;;5.50;2.60;;;;;;;;;;5052470;28;20190;-78
2023/03/16 04:38:32;;;;;;;4.43;2.53;;;;;;;;;;5052247;28;20421;-77
2023/03/16 04:40:57;;;;;;;5.17;2.40;;;;;;;;;;5054774;28;20453;-76
2023/03/16 04:43:23;;;;;;;3.83;2.43;;;;;;;;;;5052065;28;20811;-77
2023/03/16 04:45:49;;;;;;;5.37;2.90;;;;;;;;;;5055657;28;20252;-77
2023/03/16 04:48:14;;;;;;;2.63;2.23;;;;;;;;;;5058976;28;20178;-77
2023/03/16 04:50:39;;;;;;;5.43;2.60;;;;;;;;;;5058373;28;20485;-77
2023/03/16 04:53:05;;;;;;;5.07;2.30;;;;;;;;;;5057952;28;20175;-77
2023/03/16 04:55:30;;;;;;;4.37;2.80;;;;;;;;;;5053966;28;20214;-78
2023/03/16 04:57:58;;;;;;;3.97;2.30;;;;;;;;;;5051521;28;20224;-78
2023/03/16 05:00:24;;;;;;;5.47;2.80;;;;;;;;;;5047198;28;20267;-78
2023/03/16 05:02:50;;;;;;;3.67;2.40;;;;;;;;;;5044074;28;20520;-78
2023/03/16 05:05:16;;;;;;;6.20;2.93;;;;;;;;;;5064934;28;20215;-78
2023/03/16 05:07:41;;;;;;;5.50;2.93;;;;;;;;;;5054927;28;20425;-78
2023/03/16 05:10:08;;;;;;;2.83;2.53;;;;;;;;;;5050998;28;20175;-77
2023/03/16 05:12:33;;;;;;;4.20;2.30;;;;;;;;;;5055754;28;20184;-78
2023/03/16 05:14:58;;;;;;;9.20;3.27;;;;;;;;;;5050697;28;20985;-77
2023/03/16 05:17:24;;;;;;;9.97;2.70;;;;;;;;;;5049912;28;20183;-78
2023/03/16 05:19:49;;;;;;;3.80;2.70;;;;;;;;;;5054413;28;20186;-78
2023/03/16 05:22:14;;;;;;;4.83;2.37;;;;;;;;;;5054656;28;20180;-78
2023/03/16 05:24:40;;;;;;;3.93;2.90;;;;;;;;;;5054232;28;20208;-78
2023/03/16 05:27:05;;;;;;;7.90;2.60;;;;;;;;;;5040023;28;20180;-79
2023/03/16 05:29:30;;;;;;;5.73;3.30;;;;;;;;;;5048416;28;20556;-78
2023/03/16 05:31:56;;;;;;;5.70;2.80;;;;;;;;;;5044247;28;20184;-77
2023/03/16 05:34:21;;;;;;;4.07;2.90;;;;;;;;;;5046961;28;20646;-78
2023/03/16 05:36:47;;;;;;;7.27;3.50;;;;;;;;;;5052497;28;20207;-78
2023/03/16 05:39:12;;;;;;;4.47;2.93;;;;;;;;;;5049795;28;20224;-78
2023/03/16 05:41:37;;;;;;;9.70;3.27;;;;;;;;;;5054420;28;20180;-78
2023/03/16 05:44:03;;;;;;;3.10;2.80;;;;;;;;;;5044525;28;20234;-77
2023/03/16 05:46:28;;;;;;;9.33;3.63;;;;;;;;;;5052060;28;20207;-77
2023/03/16 05:48:53;;;;;;;3.93;2.93;;;;;;;;;;5038040;28;20179;-78
2023/03/16 05:51:19;;;;;;;3.10;2.80;;;;;;;;;;5040170;28;20188;-79
2023/03/16 05:53:45;;;;;;;5.40;3.30;;;;;;;;;;5042032;28;20207;-78
2023/03/16 05:56:11;;;;;;;4.20;2.80;;;;;;;;;;5037834;28;20187;-78
2023/03/16 05:58:36;;;;;;;3.70;2.93;;;;;;;;;;5036890;28;20441;-78
2023/03/16 06:01:01;;;;;;;7.03;3.07;;;;;;;;;;5033994;28;20202;-77
2023/03/16 06:03:27;;;;;;;6.00;3.50;;;;;;;;;;5042760;28;20205;-79
2023/03/16 06:05:52;;;;;;;4.97;2.90;;;;;;;;;;5044977;28;20207;-80
2023/03/16 06:08:17;;;;;;;4.10;2.93;;;;;;;;;;5034911;28;20546;-80
2023/03/16 06:10:45;;;;;;;4.83;2.80;;;;;;;;;;5048434;22;20228;-69
2023/03/16 06:13:10;;;;;;;5.53;3.00;;;;;;;;;;5024322;28;20189;-68
2023/03/16 06:15:38;;;;;;;4.67;3.37;;;;;;;;;;5028934;28;20457;-68
2023/03/16 06:18:03;;;;;;;8.83;3.00;;;;;;;;;;5029785;28;20250;-69
2023/03/16 06:20:28;;;;;;;6.13;3.00;;;;;;;;;;5030376;28;20542;-70
2023/03/16 06:22:53;;;;;;;5.90;3.00;;;;;;;;;;5023650;28;20819;-68
2023/03/16 06:25:19;;;;;;;4.13;3.13;;;;;;;;;;5025600;28;20307;-69
2023/03/16 06:27:44;;;;;;;6.63;3.20;;;;;;;;;;5022108;28;20176;-71
2023/03/16 06:30:10;;;;;;;3.33;2.53;;;;;;;;;;5030809;28;20236;-70
2023/03/16 06:32:36;;;;;;;4.50;3.00;;;;;;;;;;5030492;28;20667;-71
2023/03/16 06:35:02;;;;;;;4.80;2.63;;;;;;;;;;5022847;28;20431;-71
2023/03/16 06:37:28;;;;;;;5.53;2.93;;;;;;;;;;5026035;28;20951;-71
2023/03/16 06:39:53;;;;;;;5.10;3.57;;;;;;;;;;5026532;28;20501;-71
2023/03/16 06:42:19;;;;;;;4.43;2.90;;;;;;;;;;5026939;28;20184;-71
2023/03/16 06:44:44;;;;;;;3.47;2.97;;;;;;;;;;5020057;28;20350;-70
2023/03/16 06:47:10;;;;;;;6.40;3.10;;;;;;;;;;5029183;28;20564;-71
2023/03/16 06:49:36;;;;;;;5.10;2.63;;;;;;;;;;5029096;28;20176;-68
2023/03/16 06:52:02;;;;;;;6.40;3.30;;;;;;;;;;5030679;28;20972;-71
2023/03/16 06:54:27;;;;;;;4.40;2.90;;;;;;;;;;5027024;28;20180;-71
2023/03/16 06:56:52;;;;;;;3.70;2.80;;;;;;;;;;5029776;28;20477;-71
2023/03/16 06:59:18;;;;;;;3.87;2.63;;;;;;;;;;5024530;28;20751;-71
2023/03/16 07:01:43;;;;;;;4.73;3.30;;;;;;;;;;5030502;28;20204;-70
2023/03/16 07:04:09;;;;;;;4.73;2.57;;;;;;;;;;5020640;28;20222;-70
2023/03/16 07:06:34;;;;;;;5.13;2.70;;;;;;;;;;5029923;28;20612;-71
2023/03/16 07:09:00;;;;;;;5.90;2.83;;;;;;;;;;5029221;28;20176;-70
2023/03/16 07:11:25;;;;;;;4.87;2.73;;;;;;;;;;5029450;28;20212;-70
2023/03/16 07:13:51;;;;;;;3.77;2.43;;;;;;;;;;5024801;28;20321;-71
2023/03/16 07:16:16;;;;;;;5.23;2.77;;;;;;;;;;5032493;28;20538;-70
2023/03/16 07:18:43;;;;;;;5.00;2.87;;;;;;;;;;5031043;28;20307;-71
2023/03/16 07:21:08;;;;;;;5.77;2.87;;;;;;;;;;5037638;28;20235;-71
2023/03/16 07:23:34;;;;;;;5.83;3.10;;;;;;;;;;5033595;28;20426;-71
2023/03/16 07:25:59;;;;;;;5.63;3.07;;;;;;;;;;5032623;28;20362;-68
2023/03/16 07:28:25;;;;;;;3.97;2.80;;;;;;;;;;5028224;28;20553;-71
2023/03/16 07:30:51;;;;;;;3.90;3.03;;;;;;;;;;5022695;28;20199;-69
2023/03/16 07:33:16;;;;;;;3.63;2.80;;;;;;;;;;5033469;28;20453;-68
2023/03/16 07:35:41;;;;;;;2.97;2.67;;;;;;;;;;5032767;28;20188;-69
2023/03/16 07:38:09;;;;;;;3.93;2.90;;;;;;;;;;5033168;28;20189;-69
2023/03/16 07:40:34;;;;;;;11.43;2.87;;;;;;;;;;5034851;28;20588;-69
2023/03/16 07:43:00;;;;;;;4.60;2.63;;;;;;;;;;5031490;28;20439;-69
2023/03/16 07:45:25;;;;;;;3.70;2.17;;;;;;;;;;5025737;28;20200;-68
2023/03/16 07:47:50;;;;;;;5.50;2.50;;;;;;;;;;5031731;28;20263;-69
2023/03/16 07:50:18;;;;;;;2.73;2.50;;;;;;;;;;5026746;28;20211;-69
2023/03/16 07:52:44;;;;;;;5.10;2.83;;;;;;;;;;5025230;28;20678;-69
2023/03/16 07:55:10;;;;;;;4.03;2.67;;;;;;;;;;5031592;28;20458;-69
2023/03/16 07:57:38;;;;;;;4.30;2.50;;;;;;;;;;5021420;28;20867;-69
2023/03/16 08:00:04;;;;;;;3.90;2.20;;;;;;;;;;5026627;28;20185;-68
2023/03/16 08:02:29;;;;;;;8.77;3.33;;;;;;;;;;5029356;28;20474;-69
2023/03/16 08:04:55;;;;;;;3.77;2.57;;;;;;;;;;5025244;28;20549;-69
2023/03/16 08:07:23;;;;;;;3.90;3.03;;;;;;;;;;5028205;28;20263;-69
2023/03/16 08:09:48;;;;;;;4.53;2.57;;;;;;;;;;5028480;28;20188;-68
2023/03/16 08:12:13;;;;;;;4.53;2.40;;;;;;;;;;5020741;28;20477;-69
2023/03/16 08:14:39;;;;;;;4.37;3.17;;;;;;;;;;5030480;28;20826;-69
2023/03/16 08:17:06;;;;;;;4.50;2.63;;;;;;;;;;5020565;28;20262;-69
2023/03/16 08:19:32;;;;;;;7.80;2.37;;;;;;;;;;5023432;28;20199;-68
2023/03/16 08:21:59;;;;;;;3.90;2.57;;;;;;;;;;5024375;28;20458;-68
2023/03/16 08:24:26;;;;;;;4.50;2.70;;;;;;;;;;5030971;28;20434;-68
2023/03/16 08:26:51;;;;;;;6.77;2.90;;;;;;;;;;5025296;28;20941;-68
2023/03/16 08:29:17;;;;;;;7.80;3.00;;;;;;;;;;5019951;28;20446;-68
2023/03/16 08:31:43;;;;;;;2.73;2.30;;;;;;;;;;5028665;28;20211;-69
2023/03/16 08:34:09;;;;;;;11.93;4.67;;;;;;;;;;5026683;28;20426;-68
2023/03/16 08:36:35;;;;;;;4.10;2.60;;;;;;;;;;5026250;28;20179;-68
2023/03/16 08:39:01;;;;;;;6.87;2.87;;;;;;;;;;5029367;28;20530;-68
2023/03/16 08:41:29;;;;;;;4.00;2.97;;;;;;;;;;5023308;28;21028;-68
2023/03/16 08:43:55;;;;;;;3.10;2.80;;;;;;;;;;5017076;28;20211;-68
2023/03/16 08:46:20;;;;;;;4.70;3.03;;;;;;;;;;5027939;28;20607;-68
2023/03/16 08:48:47;;;;;;;4.23;2.80;;;;;;;;;;5027850;28;20257;-68
2023/03/16 08:51:12;;;;;;;3.00;2.63;;;;;;;;;;5026000;28;20287;-68
2023/03/16 08:53:38;;;;;;;4.10;2.50;;;;;;;;;;5020349;28;21030;-68
2023/03/16 08:56:05;;;;;;;7.03;3.20;;;;;;;;;;5027277;28;20365;-68
2023/03/16 08:58:31;;;;;;;8.07;3.20;;;;;;;;;;5024564;28;20554;-68
2023/03/16 09:00:57;;;;;;;4.80;2.90;;;;;;;;;;5023974;28;21832;-68
2023/03/16 09:03:22;;;;;;;5.10;2.93;;;;;;;;;;5031010;28;20439;-68
2023/03/16 09:05:48;;;;;;;4.93;3.00;;;;;;;;;;5024133;28;20577;-68
2023/03/16 09:08:13;;;;;;;4.13;2.87;;;;;;;;;;5024929;28;20633;-69
2023/03/16 09:10:38;;;;;;;4.80;2.80;;;;;;;;;;5021844;28;20208;-68
2023/03/16 09:13:04;;;;;;;5.33;2.80;;;;;;;;;;5017566;28;20175;-69
2023/03/16 09:15:30;;;;;;;4.63;2.90;;;;;;;;;;5022954;28;20962;-68
2023/03/16 09:17:56;;;;;;;4.17;3.10;;;;;;;;;;5018739;28;20713;-69
2023/03/16 09:20:22;;;;;;;7.17;3.13;;;;;;;;;;5030559;28;20454;-69
2023/03/16 09:22:47;;;;;;;3.70;2.47;;;;;;;;;;5024278;28;20524;-69
2023/03/16 09:25:13;;;;;;;5.40;3.70;;;;;;;;;;5025447;28;20195;-68
2023/03/16 09:27:39;;;;;;;3.13;2.83;;;;;;;;;;5024531;28;20187;-68
2023/03/16 09:30:06;;;;;;;5.97;3.20;;;;;;;;;;5025649;28;20188;-68
2023/03/16 09:32:32;;;;;;;3.90;2.73;;;;;;;;;;5043930;28;20549;-68
2023/03/16 09:34:58;;;;;;;4.80;3.10;;;;;;;;;;5026122;28;20446;-68
2023/03/16 09:37:24;;;;;;;4.17;3.57;;;;;;;;;;5022127;28;20431;-68
2023/03/16 09:39:50;;;;;;;9.20;3.33;;;;;;;;;;5018957;28;21832;-68
2023/03/16 09:42:29;;;;;;;6.60;3.33;;;;;;;;;;5023623;28;20464;-68
2023/03/16 09:45:17;;;;;;;4.17;3.13;;;;;;;;;;5038871;28;20234;-68
2023/03/16 09:47:45;;;;;;;4.40;3.20;;;;;;;;;;5044348;28;20526;-68
2023/03/16 09:50:15;;;;;;;6.10;3.67;;;;;;;;;;5034083;28;20450;-68
2023/03/16 09:52:45;;;;;;;5.83;4.00;;;;;;;;;;5031658;28;20430;-68
2023/03/16 09:55:29;;;;;;;7.80;3.77;;;;;;;;;;5040549;28;20461;-68
2023/03/16 09:58:14;;;;;;;3.67;3.23;;;;;;;;;;5038790;28;20552;-68
2023/03/16 10:00:44;;;;;;;7.00;4.03;;;;;;;;;;5020260;28;20466;-68
2023/03/16 10:05:59;;;;;;;7.17;3.90;;;;;;;;;;5028449;28;20509;-69
2023/03/16 10:08:30;;;;;;;6.90;3.70;;;;;;;;;;5025816;28;20958;-69
2023/03/16 10:10:59;;;;;;;5.20;3.20;;;;;;;;;;5022498;28;20465;-70
2023/03/16 10:13:30;;;;;;;7.63;3.90;;;;;;;;;;5045507;28;20434;-69
2023/03/16 10:15:58;;;;;;;5.20;3.80;;;;;;;;;;5024958;28;20435;-70
2023/03/16 10:18:27;;;;;;;6.03;4.07;;;;;;;;;;5018681;28;20431;-69
2023/03/16 10:20:54;;;;;;;6.63;3.90;;;;;;;;;;5025187;28;20533;-69
2023/03/16 10:23:21;;;;;;;6.17;4.07;;;;;;;;;;5030273;28;20439;-69
2023/03/16 10:25:48;;;;;;;4.67;3.90;;;;;;;;;;5027205;28;20466;-69
2023/03/16 10:28:31;;;;;;;7.57;4.50;;;;;;;;;;5029589;28;20496;-69
2023/03/16 10:30:58;;;;;;;8.67;4.23;;;;;;;;;;5022252;28;20437;-70
2023/03/16 10:33:31;;;;;;;5.47;4.43;;;;;;;;;;5021360;28;20527;-69
2023/03/16 10:36:15;;;;;;;5.67;4.13;;;;;;;;;;5027301;28;20448;-69
2023/03/16 10:38:45;;;;;;;6.27;3.93;;;;;;;;;;5034186;28;20438;-69
2023/03/16 10:41:17;;;;;;;5.40;3.90;;;;;;;;;;5025282;28;21360;-69
2023/03/16 10:43:43;;;;;;;5.73;4.03;;;;;;;;;;5023592;28;20434;-68
2023/03/16 10:46:10;;;;;;;8.10;4.77;;;;;;;;;;5024060;28;20558;-69
2023/03/16 10:48:36;;;;;;;7.57;4.10;;;;;;;;;;5023709;28;20442;-69
2023/03/16 10:51:05;;;;;;;7.07;5.00;;;;;;;;;;5026232;28;20469;-69
2023/03/16 10:53:33;;;;;;;4.83;4.00;;;;;;;;;;5025026;28;20490;-69
2023/03/16 10:56:04;;;;;;;4.60;4.17;;;;;;;;;;5024899;28;20920;-69
2023/03/16 10:58:31;;;;;;;6.50;4.10;;;;;;;;;;5022572;28;20431;-69
2023/03/16 11:00:57;;;;;;;7.70;4.50;;;;;;;;;;5023181;28;20449;-69
2023/03/16 11:03:26;;;;;;;6.90;4.10;;;;;;;;;;5025140;28;21328;-69
2023/03/16 11:05:56;;;;;;;6.07;4.23;;;;;;;;;;5027267;28;20630;-69
2023/03/16 11:08:24;;;;;;;4.40;4.00;;;;;;;;;;5027094;28;20435;-69
2023/03/16 11:10:56;;;;;;;6.47;4.23;;;;;;;;;;5028622;28;20462;-69
2023/03/16 11:13:23;;;;;;;6.13;4.40;;;;;;;;;;5018639;28;20442;-69
2023/03/16 11:15:48;;;;;;;5.30;4.40;;;;;;;;;;5028400;28;20441;-69
2023/03/16 11:18:27;;;;;;;6.97;4.30;;;;;;;;;;5026741;28;20434;-69
2023/03/16 11:20:53;;;;;;;9.87;5.00;;;;;;;;;;5049788;28;20682;-69
2023/03/16 11:23:20;;;;;;;7.27;4.20;;;;;;;;;;5034016;28;20517;-69
2023/03/16 11:25:47;;;;;;;5.90;4.77;;;;;;;;;;5028282;28;20470;-69
2023/03/16 11:28:16;;;;;;;5.60;4.97;;;;;;;;;;5027719;28;20434;-69
2023/03/16 11:30:45;;;;;;;6.93;4.17;;;;;;;;;;5028824;28;20454;-69
2023/03/16 11:33:12;;;;;;;5.07;4.43;;;;;;;;;;5029870;28;20439;-69
2023/03/16 11:35:44;;;;;;;8.00;4.40;;;;;;;;;;5023689;28;20442;-69
2023/03/16 11:38:09;;;;;;;5.90;4.30;;;;;;;;;;5034484;28;20438;-69
2023/03/16 11:40:40;;;;;;;6.30;4.33;;;;;;;;;;5035923;28;20525;-69
2023/03/16 11:43:14;;;;;;;8.57;4.67;;;;;;;;;;5024263;28;20188;-69
2023/03/16 11:45:41;;;;;;;5.97;4.23;;;;;;;;;;5026346;28;20473;-69
2023/03/16 11:48:25;;;;;;;7.93;5.10;;;;;;;;;;5026653;28;20439;-69
2023/03/16 11:51:01;;;;;;;7.90;4.83;;;;;;;;;;5036037;28;20489;-69
2023/03/16 11:53:40;;;;;;;6.60;5.40;;;;;;;;;;5026350;28;20790;-69
2023/03/16 11:56:26;;;;;;;9.23;4.67;;;;;;;;;;5029355;28;20947;-69
2023/03/16 11:59:10;;;;;;;12.50;5.27;;;;;;;;;;5047901;28;20481;-69
2023/03/16 12:01:44;;;;;;;7.73;4.70;;;;;;;;;;5034352;28;20453;-69
2023/03/16 12:04:29;;;;;;;6.07;3.90;;;;;;;;;;5035155;28;21023;-69
2023/03/16 12:07:03;;;;;;;5.30;4.17;;;;;;;;;;5029259;28;20435;-69
2023/03/16 12:09:29;;;;;;;7.00;4.80;;;;;;;;;;5026274;28;20446;-69
2023/03/16 12:12:01;;;;;;;7.47;4.60;;;;;;;;;;5032005;28;20493;-69
2023/03/16 12:14:32;;;;;;;5.03;4.03;;;;;;;;;;5029060;28;20176;-69
2023/03/16 12:17:01;;;;;;;11.00;5.33;;;;;;;;;;5029609;28;20435;-69
2023/03/16 12:19:45;;;;;;;6.90;5.20;;;;;;;;;;5058514;22;20597;-74
2023/03/16 12:22:16;;;;;;;4.70;4.00;;;;;;;;;;5019574;28;20554;-73
2023/03/16 12:24:42;;;;;;;6.90;4.23;;;;;;;;;;5024632;28;20494;-75
2023/03/16 12:27:16;;;;;;;6.00;5.10;;;;;;;;;;5018722;28;20454;-75
2023/03/16 12:30:05;;;;;;;6.80;4.40;;;;;;;;;;5018148;28;20899;-75
2023/03/16 12:32:46;;;;;;;10.90;4.20;;;;;;;;;;5016745;28;20964;-75
2023/03/16 12:35:18;;;;;;;5.70;4.63;;;;;;;;;;5019782;28;20497;-74
2023/03/16 12:37:59;;;;;;;5.70;4.40;;;;;;;;;;5024500;28;20435;-74
2023/03/16 12:40:38;;;;;;;6.27;5.00;;;;;;;;;;5021915;28;20458;-74
2023/03/16 12:43:22;;;;;;;5.30;4.40;;;;;;;;;;5021303;28;20438;-74
2023/03/16 12:45:57;;;;;;;7.50;5.03;;;;;;;;;;5018362;28;20517;-74
2023/03/16 12:48:23;;;;;;;5.73;4.20;;;;;;;;;;5020409;28;20431;-74
2023/03/16 12:50:50;;;;;;;7.80;4.70;;;;;;;;;;5020965;28;20451;-74
2023/03/16 12:53:38;;;;;;;6.37;4.90;;;;;;;;;;5017631;28;20431;-74
2023/03/16 12:56:07;;;;;;;4.97;4.30;;;;;;;;;;5025682;28;20444;-75
2023/03/16 12:58:33;;;;;;;6.27;4.10;;;;;;;;;;5021694;28;20431;-75
2023/03/16 13:00:58;;;;;;;5.10;4.10;;;;;;;;;;5022085;28;20463;-75
2023/03/16 13:03:24;;;;;;;5.00;3.80;;;;;;;;;;5022984;28;21303;-75
2023/03/16 13:05:54;;;;;;;7.53;4.20;;;;;;;;;;5019129;28;20216;-75
2023/03/16 13:08:21;;;;;;;7.20;4.60;;;;;;;;;;5021975;28;20529;-75
2023/03/16 13:11:00;;;;;;;4.50;3.40;;;;;;;;;;5019875;28;20486;-75
2023/03/16 13:13:27;;;;;;;7.10;4.33;;;;;;;;;;5021674;28;20476;-75
2023/03/16 13:16:02;;;;;;;6.13;4.07;;;;;;;;;;5021906;28;20434;-75
2023/03/16 13:18:34;;;;;;;5.57;3.37;;;;;;;;;;5022097;28;20449;-75
2023/03/16 13:21:00;;;;;;;5.37;3.70;;;;;;;;;;5023069;28;20612;-75
2023/03/16 13:23:28;;;;;;;5.70;3.80;;;;;;;;;;5020421;28;20431;-75
2023/03/16 13:26:03;;;;;;;4.90;3.70;;;;;;;;;;5024653;28;20833;-75
2023/03/16 13:28:30;;;;;;;6.00;3.57;;;;;;;;;;5013583;28;20810;-76
2023/03/16 13:30:55;;;;;;;7.23;4.00;;;;;;;;;;5019300;28;20552;-76
2023/03/16 13:33:23;;;;;;;5.50;3.70;;;;;;;;;;5020523;28;20506;-74
2023/03/16 13:35:50;;;;;;;4.30;3.30;;;;;;;;;;5022287;28;20728;-75
2023/03/16 13:38:16;;;;;;;6.23;3.17;;;;;;;;;;5023896;28;20914;-76
2023/03/16 13:40:46;;;;;;;5.53;3.53;;;;;;;;;;5019554;28;25950;-76
2023/03/16 13:43:16;;;;;;;3.67;2.77;;;;;;;;;;5015777;28;20865;-76
2023/03/16 13:45:41;;;;;;;7.67;3.57;;;;;;;;;;5017304;28;20577;-77
2023/03/16 13:48:11;;;;;;;4.13;3.13;;;;;;;;;;5018121;28;20428;-76
2023/03/16 13:50:38;;;;;;;3.50;2.80;;;;;;;;;;5022623;28;20197;-76
2023/03/16 13:53:09;;;;;;;5.60;2.73;;;;;;;;;;5020979;28;20480;-76
2023/03/16 13:55:35;;;;;;;5.57;3.10;;;;;;;;;;5020107;28;20439;-75
2023/03/16 13:58:02;;;;;;;4.53;3.00;;;;;;;;;;5023252;28;20435;-76
2023/03/16 14:00:33;;;;;;;4.80;3.00;;;;;;;;;;5016094;28;20827;-77
2023/03/16 14:03:03;;;;;;;3.63;2.90;;;;;;;;;;5017732;28;20451;-76
2023/03/16 14:05:32;;;;;;;6.23;3.13;;;;;;;;;;5014981;28;20479;-76
2023/03/16 14:07:59;;;;;;;3.73;3.17;;;;;;;;;;5020553;28;20463;-76
2023/03/16 14:10:28;;;;;;;4.40;2.60;;;;;;;;;;5021310;28;20455;-77
2023/03/16 14:12:54;;;;;;;7.17;3.60;;;;;;;;;;5016891;28;20423;-77
2023/03/16 14:15:21;;;;;;;6.60;3.30;;;;;;;;;;5015785;28;20438;-77
2023/03/16 14:17:46;;;;;;;5.17;2.93;;;;;;;;;;5015023;28;20443;-77
2023/03/16 14:20:22;;;;;;;4.20;3.40;;;;;;;;;;5014477;28;20462;-77
2023/03/16 14:22:51;;;;;;;5.70;3.23;;;;;;;;;;5019106;28;20181;-77
2023/03/16 14:25:22;;;;;;;7.10;3.50;;;;;;;;;;5015203;28;20473;-77
2023/03/16 14:27:55;;;;;;;3.40;2.83;;;;;;;;;;5015631;28;22942;-77
2023/03/16 14:30:24;;;;;;;4.87;3.00;;;;;;;;;;5014447;28;20458;-77
2023/03/16 14:32:57;;;;;;;2.90;2.60;;;;;;;;;;5013986;28;20935;-78
2023/03/16 14:35:24;;;;;;;6.50;3.33;;;;;;;;;;5007646;28;20435;-78
2023/03/16 14:37:50;;;;;;;3.60;2.80;;;;;;;;;;5018751;28;20489;-79
2023/03/16 14:40:24;;;;;;;5.23;2.90;;;;;;;;;;5023092;28;20478;-78
2023/03/16 14:42:50;;;;;;;4.60;2.90;;;;;;;;;;5018360;28;20529;-78
2023/03/16 14:45:16;;;;;;;6.17;3.50;;;;;;;;;;5021094;28;20471;-78
2023/03/16 14:47:43;;;;;;;4.77;3.20;;;;;;;;;;5019249;28;20442;-79
2023/03/16 14:50:11;;;;;;;3.87;3.23;;;;;;;;;;5014618;28;20213;-78